createdAt,value
2022-07-27T00:00:59.451Z,102079.34
2022-07-27T00:06:02.903Z,102077.41
2022-07-27T00:11:06.597Z,102069.47
2022-07-27T00:16:10.959Z,102064.94
2022-07-27T00:21:14.896Z,102073.94
2022-07-27T00:26:17.988Z,102071.06
2022-07-27T00:31:22.420Z,102073.56
2022-07-27T00:36:25.397Z,102070.88
2022-07-27T00:41:28.461Z,102057.31
2022-07-27T00:46:32.851Z,102062.53
2022-07-27T00:51:36.188Z,102067.50
2022-07-27T00:56:39.642Z,102071.84
2022-07-27T01:01:44.278Z,102076.31
2022-07-27T01:06:47.328Z,102070.94
2022-07-27T01:11:50.514Z,102077.78
2022-07-27T01:16:55.005Z,102059.25
2022-07-27T01:21:59.531Z,102068.91
2022-07-27T01:27:03.684Z,102067.09
2022-07-27T01:32:07.615Z,102069.50
2022-07-27T01:37:11.966Z,102063.25
2022-07-27T01:42:16.445Z,102046.19
2022-07-27T01:47:19.334Z,102047.22
2022-07-27T01:52:23.671Z,102047.88
2022-07-27T01:57:26.764Z,102054.00
2022-07-27T02:02:29.817Z,102051.34
2022-07-27T02:07:34.128Z,102060.09
2022-07-27T02:12:37.201Z,102056.22
2022-07-27T02:17:40.837Z,102061.44
2022-07-27T02:22:47.256Z,102059.69
2022-07-27T02:27:50.534Z,102047.44
2022-07-27T02:32:53.688Z,102046.91
2022-07-27T02:37:58.126Z,102032.97
2022-07-27T02:43:01.088Z,102032.31
2022-07-27T02:48:04.300Z,102038.63
2022-07-27T02:53:08.890Z,102045.03
2022-07-27T02:58:12.035Z,102034.53
2022-07-27T03:03:15.376Z,102036.56
2022-07-27T03:08:19.855Z,102029.75
2022-07-27T03:13:22.804Z,102038.81
2022-07-27T03:18:26.169Z,102034.38
2022-07-27T03:23:33.288Z,102031.78
2022-07-27T03:28:38.323Z,102047.59
2022-07-27T03:33:42.398Z,102044.97
2022-07-27T03:38:46.792Z,102045.75
2022-07-27T03:43:50.082Z,102052.03
2022-07-27T03:48:53.113Z,102047.50
2022-07-27T03:53:58.825Z,102046.69
2022-07-27T03:59:02.685Z,102039.78
2022-07-27T04:04:06.020Z,102037.97
2022-07-27T04:09:10.457Z,102041.56
2022-07-27T04:14:17.893Z,102043.44
2022-07-27T04:19:20.893Z,102050.72
2022-07-27T04:24:25.414Z,102050.13
2022-07-27T04:29:28.974Z,102048.69
2022-07-27T04:34:31.971Z,102056.38
2022-07-27T04:39:36.531Z,102066.41
2022-07-27T04:44:39.514Z,102059.56
2022-07-27T04:49:42.656Z,102069.53
2022-07-27T04:54:47.256Z,102070.41
2022-07-27T04:59:50.922Z,102080.16
2022-07-27T05:04:53.836Z,102075.78
2022-07-27T05:09:58.192Z,102076.78
2022-07-27T05:15:01.164Z,102076.22
2022-07-27T05:20:04.746Z,102080.06
2022-07-27T05:25:10.295Z,102087.56
2022-07-27T05:30:14.275Z,102089.97
2022-07-27T05:35:17.477Z,102097.81
2022-07-27T05:40:21.899Z,102101.59
2022-07-27T05:45:26.238Z,102104.69
2022-07-27T05:50:29.352Z,102104.94
2022-07-27T05:55:34.137Z,102120.63
2022-07-27T06:00:37.388Z,102103.69
2022-07-27T06:05:40.434Z,102113.69
2022-07-27T06:10:45.055Z,102116.91
2022-07-27T06:15:48.019Z,102099.44
2022-07-27T06:20:50.922Z,102101.88
2022-07-27T06:25:55.480Z,102112.81
2022-07-27T06:30:58.646Z,102114.06
2022-07-27T06:36:05.474Z,102116.56
2022-07-27T06:41:10.098Z,102118.31
2022-07-27T06:46:14.364Z,102120.66
2022-07-27T06:51:17.337Z,102120.84
2022-07-27T06:56:22.376Z,102114.97
2022-07-27T07:01:25.846Z,102120.13
2022-07-27T07:06:28.923Z,102113.59
2022-07-27T07:11:33.366Z,102130.91
2022-07-27T07:16:36.609Z,102121.66
2022-07-27T07:21:39.857Z,102130.91
2022-07-27T07:26:45.222Z,102136.63
2022-07-27T07:31:48.535Z,102141.09
2022-07-27T07:36:51.666Z,102134.59
2022-07-27T07:41:56.212Z,102141.47
2022-07-27T07:46:59.272Z,102150.81
2022-07-27T07:52:02.381Z,102151.00
2022-07-27T07:57:07.023Z,102146.41
2022-07-27T08:02:10.370Z,102148.28
2022-07-27T08:07:13.587Z,102153.06
2022-07-27T08:12:18.112Z,102156.19
2022-07-27T08:17:21.159Z,102157.00
2022-07-27T08:22:24.274Z,102160.06
2022-07-27T08:27:29.140Z,102159.53
2022-07-27T08:32:32.463Z,102146.34
2022-07-27T08:37:35.677Z,102151.81
2022-07-27T08:42:42.709Z,102144.88
2022-07-27T08:47:46.925Z,102157.03
2022-07-27T08:52:53.773Z,102154.47
2022-07-27T08:58:02.742Z,102156.47
2022-07-27T09:03:06.908Z,102154.81
2022-07-27T09:08:11.671Z,102159.59
2022-07-27T09:13:22.212Z,102155.31
2022-07-27T09:18:27.950Z,102145.88
2022-07-27T09:23:31.017Z,102137.78
2022-07-27T09:28:35.960Z,102139.63
2022-07-27T09:33:45.996Z,102123.59
2022-07-27T09:38:58.725Z,102133.59
2022-07-27T09:49:32.548Z,102134.66
2022-07-27T09:54:43.629Z,102127.44
2022-07-27T09:59:48.475Z,102133.84
2022-07-27T10:04:51.916Z,102138.00
2022-07-27T10:09:55.657Z,102126.56
2022-07-27T10:15:02.455Z,102125.88
2022-07-27T10:20:09.376Z,102128.66
2022-07-27T10:25:12.549Z,102138.50
2022-07-27T10:30:24.018Z,102128.72
2022-07-27T10:35:35.310Z,102111.78
2022-07-27T10:40:39.254Z,102115.38
2022-07-27T10:45:55.365Z,102103.69
2022-07-27T10:51:07.132Z,102101.84
2022-07-27T10:56:11.556Z,102103.50
2022-07-27T11:01:17.170Z,102104.47
2022-07-27T11:06:36.273Z,102101.84
2022-07-27T11:11:45.510Z,102091.72
2022-07-27T11:16:56.640Z,102093.94
2022-07-27T11:22:04.698Z,102092.81
2022-07-27T11:27:16.804Z,102106.38
2022-07-27T11:32:23.659Z,102099.22
2022-07-27T11:37:26.712Z,102104.59
2022-07-27T11:42:38.458Z,102106.28
2022-07-27T11:47:43.723Z,102098.03
2022-07-27T11:53:01.264Z,102093.28
2022-07-27T11:58:05.216Z,102086.38
2022-07-27T12:03:20.767Z,102091.00
2022-07-27T12:08:24.436Z,102080.47
2022-07-27T12:13:33.955Z,102090.25
2022-07-27T12:18:44.720Z,102087.19
2022-07-27T12:23:52.750Z,102080.44
2022-07-27T12:29:10.791Z,102100.59
2022-07-27T12:34:17.020Z,102092.81
2022-07-27T12:39:30.545Z,102079.50
2022-07-27T12:44:34.737Z,102079.47
2022-07-27T12:49:44.602Z,102084.94
2022-07-27T12:54:49.570Z,102081.31
2022-07-27T12:59:52.859Z,102075.06
2022-07-27T13:04:57.385Z,102072.22
2022-07-27T13:10:03.288Z,102073.91
2022-07-27T13:15:08.995Z,102070.19
2022-07-27T13:20:14.756Z,102072.13
2022-07-27T13:25:21.197Z,102062.53
2022-07-27T13:30:25.103Z,102059.78
2022-07-27T13:35:29.923Z,102056.16
2022-07-27T13:40:33.173Z,102049.97
2022-07-27T13:45:43.056Z,102050.94
2022-07-27T13:50:50.262Z,102042.03
2022-07-27T13:55:53.417Z,102048.31
2022-07-27T14:00:56.844Z,102051.88
2022-07-27T14:06:01.430Z,102039.34
2022-07-27T14:11:05.323Z,102047.41
2022-07-27T14:16:10.760Z,102031.16
2022-07-27T14:21:16.328Z,102040.03
2022-07-27T14:26:19.976Z,102033.88
2022-07-27T14:31:23.110Z,102037.47
2022-07-27T14:36:27.985Z,102021.44
2022-07-27T14:41:31.638Z,102023.22
2022-07-27T14:46:34.941Z,102016.09
2022-07-27T14:51:39.522Z,102024.16
2022-07-27T14:56:42.463Z,102029.50
2022-07-27T15:01:45.828Z,102020.56
2022-07-27T15:06:50.354Z,102012.50
2022-07-27T15:11:53.664Z,102007.16
2022-07-27T15:16:57.565Z,102012.53
2022-07-27T15:22:01.977Z,102002.69
2022-07-27T15:27:05.603Z,102010.66
2022-07-27T15:32:09.453Z,102004.47
2022-07-27T15:37:14.524Z,102000.03
2022-07-27T15:42:17.632Z,102003.56
2022-07-27T15:47:20.568Z,102008.06
2022-07-27T15:52:25.202Z,102008.97
2022-07-27T15:57:28.166Z,101987.50
2022-07-27T16:02:31.159Z,101997.31
2022-07-27T16:07:41.419Z,101989.28
2022-07-27T16:12:45.095Z,102001.75
2022-07-27T16:17:48.308Z,101996.38
2022-07-27T16:22:52.860Z,101991.00
2022-07-27T16:27:56.112Z,101982.09
2022-07-27T16:32:59.569Z,101987.47
2022-07-27T16:38:04.063Z,101975.81
2022-07-27T16:43:07.233Z,101983.91
2022-07-27T16:48:12.296Z,101974.06
2022-07-27T16:53:17.300Z,101969.59
2022-07-27T16:58:20.443Z,101974.03
2022-07-27T17:03:23.604Z,101973.16
2022-07-27T17:08:28.067Z,101966.88
2022-07-27T17:13:34.249Z,101957.88
2022-07-27T17:18:40.472Z,101970.25
2022-07-27T17:23:45.274Z,101970.19
2022-07-27T17:28:48.281Z,101969.09
2022-07-27T17:33:51.912Z,101969.97
2022-07-27T17:38:56.588Z,101959.22
2022-07-27T17:44:00.696Z,101961.84
2022-07-27T17:49:03.897Z,101957.28
2022-07-27T17:54:08.301Z,101968.78
2022-07-27T18:03:57.286Z,101959.66
2022-07-27T18:09:00.518Z,101969.41
2022-07-27T18:14:03.490Z,101962.34
2022-07-27T18:19:07.924Z,101952.59
2022-07-27T18:24:11.053Z,101949.94
2022-07-27T18:29:16.205Z,101960.56
2022-07-27T18:34:20.786Z,101962.16
2022-07-27T18:39:28.821Z,101964.75
2022-07-27T18:44:39.075Z,101971.78
2022-07-27T18:49:44.890Z,101977.75
2022-07-27T18:54:48.346Z,101983.88
2022-07-27T18:59:53.456Z,101979.31
2022-07-27T19:04:57.866Z,101995.09
2022-07-27T19:10:01.354Z,101986.81
2022-07-27T19:15:05.554Z,101991.00
2022-07-27T19:20:11.595Z,101993.50
2022-07-27T19:25:15.787Z,102001.34
2022-07-27T19:30:19.292Z,102007.22
2022-07-27T19:35:23.710Z,102006.09
2022-07-27T19:40:43.977Z,102012.75
2022-07-27T19:45:48.804Z,102018.75
2022-07-27T19:50:53.375Z,102014.88
2022-07-27T19:55:58.122Z,102016.34
2022-07-27T20:01:01.405Z,102026.72
2022-07-27T20:06:06.849Z,102025.56
2022-07-27T20:11:09.907Z,102025.25
2022-07-27T20:16:14.421Z,102026.66
2022-07-27T20:21:22.785Z,102036.16
2022-07-27T20:26:26.532Z,102035.09
2022-07-27T20:31:29.578Z,102038.50
2022-07-27T20:36:34.058Z,102040.97
2022-07-27T20:41:37.144Z,102039.75
2022-07-27T20:46:40.422Z,102044.03
2022-07-27T20:51:44.817Z,102044.72
2022-07-27T20:56:50.567Z,102046.25
2022-07-27T21:01:53.961Z,102049.66
2022-07-27T21:06:58.534Z,102044.91
2022-07-27T21:12:01.853Z,102049.38
2022-07-27T21:17:05.027Z,102046.72
2022-07-27T21:22:09.596Z,102055.41
2022-07-27T21:27:12.715Z,102052.53
2022-07-27T21:32:15.862Z,102065.75
2022-07-27T21:37:20.493Z,102063.78
2022-07-27T21:42:23.509Z,102060.94
2022-07-27T21:47:26.519Z,102068.06
2022-07-27T21:52:30.869Z,102056.47
2022-07-27T21:57:34.062Z,102059.22
2022-07-27T22:02:37.188Z,102057.44
2022-07-27T22:07:41.580Z,102056.56
2022-07-27T22:12:44.531Z,102074.25
2022-07-27T22:17:50.083Z,102064.44
2022-07-27T22:22:55.448Z,102059.69
2022-07-27T22:27:58.478Z,102063.09
2022-07-27T22:33:02.325Z,102055.03
2022-07-27T22:38:06.881Z,102056.53
2022-07-27T22:43:09.903Z,102064.34
2022-07-27T22:48:13.551Z,102069.38
2022-07-27T22:53:18.309Z,102074.78
2022-07-27T22:58:21.964Z,102072.03
2022-07-27T23:03:25.209Z,102067.53
2022-07-27T23:08:29.619Z,102065.69
2022-07-27T23:13:33.749Z,102062.13
2022-07-27T23:18:37.031Z,102062.91
2022-07-27T23:23:53.648Z,102064.63
2022-07-27T23:28:57.221Z,102064.41
2022-07-27T23:34:00.654Z,102049.34
2022-07-27T23:39:05.107Z,102064.41
2022-07-27T23:44:08.058Z,102060.72
2022-07-27T23:49:11.326Z,102048.25
2022-07-27T23:54:16.032Z,102041.78
2022-07-27T23:59:19.372Z,102038.78
